Bethesda, Ohio
Current Conditions -  °F | °C
As of 1:46 PM on Monday 26 Jan 2015 (Local Time) from KHLG Reporting Station
Moderate Snow Moderate Snow  
Wind Chill: 15°   Ceiling: 700
Heat Index: 25°   Visibility: 0.5mi
Dew Point: 22°   Wind: 10mph
Humidity: 88%   Direction: 310°NW
Pressure: 29.7"   Gusts: NA
Location:  40.02°N, 81.07°W
Report Text: KHLG 261846Z 31009KT 1/2SM R03/3500V4000FT SN FZFG OVC007 M04/M06 A2970 RMK AO2 P0001 T10391056
Loading
Personal Weather Stations






























Interactive Weather Map New forecast layout! Learn more

10-Day Weather Forecast

Advertisements
Track Severe Weather on mobile